createdAt,value
2023-02-22T00:00:08.700Z,47.38
2023-02-22T00:02:35.042Z,47.36
2023-02-22T00:05:01.422Z,47.82
2023-02-22T00:07:27.739Z,47.50
2023-02-22T00:09:54.065Z,47.50
2023-02-22T00:15:04.390Z,47.90
2023-02-22T00:17:30.700Z,47.09
2023-02-22T00:19:57.043Z,47.61
2023-02-22T00:22:23.359Z,47.45
2023-02-22T00:24:49.735Z,47.33
2023-02-22T00:30:00.126Z,47.43
2023-02-22T00:32:26.553Z,47.36
2023-02-22T00:34:52.917Z,47.39
2023-02-22T00:37:19.280Z,47.43
2023-02-22T00:39:45.601Z,47.10
2023-02-22T00:45:05.969Z,47.39
2023-02-22T00:47:32.343Z,47.45
2023-02-22T00:49:58.664Z,47.28
2023-02-22T00:52:24.975Z,47.31
2023-02-22T00:54:51.301Z,47.73
2023-02-22T01:00:01.676Z,47.08
2023-02-22T01:02:28.023Z,47.07
2023-02-22T01:04:54.576Z,46.97
2023-02-22T01:07:23.781Z,47.13
2023-02-22T01:09:50.095Z,47.30
2023-02-22T01:12:16.502Z,47.51
2023-02-22T01:14:45.599Z,47.62
2023-02-22T01:17:11.944Z,47.08
2023-02-22T01:19:38.293Z,46.99
2023-02-22T01:22:04.640Z,47.19
2023-02-22T01:24:30.995Z,46.82
2023-02-22T01:26:57.326Z,47.24
2023-02-22T01:29:23.645Z,47.11
2023-02-22T01:31:49.984Z,47.63
2023-02-22T01:34:16.281Z,47.76
2023-02-22T01:36:42.579Z,47.09
2023-02-22T01:39:08.927Z,47.26
2023-02-22T01:41:35.288Z,47.27
2023-02-22T01:44:01.625Z,47.14
2023-02-22T01:46:30.735Z,47.69
2023-02-22T01:48:57.064Z,47.33
2023-02-22T01:51:23.384Z,47.52
2023-02-22T01:53:52.499Z,47.76
2023-02-22T01:56:18.817Z,47.82
2023-02-22T01:58:45.109Z,47.94
2023-02-22T02:01:11.461Z,47.25
2023-02-22T02:03:40.640Z,47.39
2023-02-22T02:06:06.959Z,47.77
2023-02-22T02:08:33.254Z,47.74
2023-02-22T02:10:59.581Z,47.79
2023-02-22T02:13:28.694Z,47.71
2023-02-22T02:15:55.120Z,47.86
2023-02-22T02:18:21.465Z,47.54
2023-02-22T02:20:47.749Z,47.65
2023-02-22T02:23:14.104Z,47.65
2023-02-22T02:25:43.205Z,47.58
2023-02-22T02:28:09.539Z,47.66
2023-02-22T02:33:22.563Z,47.59
2023-02-22T02:35:48.862Z,47.50
2023-02-22T02:38:15.185Z,47.30
2023-02-22T02:40:41.502Z,47.61
2023-02-22T02:43:10.602Z,48.04
2023-02-22T02:48:20.657Z,47.73
2023-02-22T02:50:49.740Z,47.44
2023-02-22T02:53:16.095Z,47.55
2023-02-22T02:55:45.191Z,47.53
2023-02-22T02:58:11.501Z,47.56
2023-02-22T03:03:34.772Z,47.74
2023-02-22T03:06:01.070Z,48.11
2023-02-22T03:08:30.164Z,47.31
2023-02-22T03:10:56.487Z,47.34
2023-02-22T03:13:25.583Z,47.58
2023-02-22T03:18:48.793Z,47.08
2023-02-22T03:21:15.497Z,47.29
2023-02-22T03:23:44.733Z,47.30
2023-02-22T03:26:11.048Z,47.33
2023-02-22T03:28:37.343Z,47.32
2023-02-22T03:34:03.040Z,47.74
2023-02-22T03:36:29.352Z,47.61
2023-02-22T03:38:58.474Z,47.62
2023-02-22T03:41:24.773Z,47.87
2023-02-22T03:43:51.106Z,47.82
2023-02-22T03:49:13.916Z,47.40
2023-02-22T03:51:43.026Z,47.77
2023-02-22T03:54:09.367Z,47.39
2023-02-22T03:56:38.507Z,47.68
2023-02-22T03:59:04.841Z,47.92
2023-02-22T04:04:27.879Z,47.88
2023-02-22T04:06:57.068Z,47.34
2023-02-22T04:09:23.370Z,47.81
2023-02-22T04:11:52.466Z,47.49
2023-02-22T04:14:18.792Z,47.83
2023-02-22T04:19:31.667Z,47.86
2023-02-22T04:22:00.760Z,47.40
2023-02-22T04:24:28.047Z,47.35
2023-02-22T04:26:58.702Z,47.43
2023-02-22T04:29:27.816Z,47.41
2023-02-22T04:34:47.986Z,47.22
2023-02-22T04:37:14.294Z,47.42
2023-02-22T04:39:40.626Z,47.21
2023-02-22T04:42:06.925Z,47.22
2023-02-22T04:44:33.237Z,47.07
2023-02-22T04:49:48.968Z,47.29
2023-02-22T04:52:17.048Z,47.59
2023-02-22T04:54:46.162Z,47.42
2023-02-22T04:57:12.456Z,47.42
2023-02-22T04:59:41.559Z,47.57
2023-02-22T05:04:51.615Z,47.16
2023-02-22T05:07:17.933Z,46.88
2023-02-22T05:09:47.084Z,47.04
2023-02-22T05:12:13.398Z,47.04
2023-02-22T05:14:39.698Z,46.92
2023-02-22T05:20:02.778Z,47.00
2023-02-22T05:22:29.123Z,46.94
2023-02-22T05:24:55.408Z,47.06
2023-02-22T05:27:21.681Z,46.82
2023-02-22T05:29:50.809Z,47.08
2023-02-22T05:35:00.874Z,47.16
2023-02-22T05:37:29.967Z,47.41
2023-02-22T05:39:59.075Z,46.94
2023-02-22T05:42:28.180Z,46.92
2023-02-22T05:44:54.479Z,46.74
2023-02-22T05:50:17.553Z,47.04
2023-02-22T05:52:43.901Z,47.35
2023-02-22T05:55:10.205Z,47.14
2023-02-22T05:57:39.571Z,46.99
2023-02-22T06:00:05.880Z,47.19
2023-02-22T06:05:18.683Z,46.99
2023-02-22T06:07:47.796Z,47.28
2023-02-22T06:10:14.080Z,47.08
2023-02-22T06:12:43.170Z,47.04
2023-02-22T06:15:09.523Z,47.32
2023-02-22T06:20:25.094Z,46.73
2023-02-22T06:22:51.420Z,47.10
2023-02-22T06:25:17.729Z,46.91
2023-02-22T06:27:44.055Z,46.79
2023-02-22T06:30:12.283Z,46.56
2023-02-22T06:35:36.151Z,46.45
2023-02-22T06:38:02.468Z,46.64
2023-02-22T06:40:28.781Z,46.24
2023-02-22T06:42:55.161Z,45.92
2023-02-22T06:45:21.490Z,46.38
2023-02-22T06:50:44.362Z,45.97
2023-02-22T06:53:10.708Z,45.84
2023-02-22T06:55:37.187Z,46.19
2023-02-22T06:58:04.562Z,45.93
2023-02-22T07:00:31.077Z,45.76
2023-02-22T07:05:52.395Z,46.20
2023-02-22T07:08:20.022Z,45.77
2023-02-22T07:10:47.544Z,45.91
2023-02-22T07:13:14.303Z,45.77
2023-02-22T07:15:43.473Z,45.90
2023-02-22T07:21:06.782Z,45.89
2023-02-22T07:23:34.098Z,45.98
2023-02-22T07:26:01.374Z,45.92
2023-02-22T07:28:27.804Z,45.55
2023-02-22T07:30:54.228Z,45.09
2023-02-22T07:33:22.497Z,45.53
2023-02-22T07:35:51.665Z,45.18
2023-02-22T07:38:18.093Z,45.26
2023-02-22T07:40:44.583Z,45.36
2023-02-22T07:43:12.062Z,45.43
2023-02-22T07:45:40.577Z,45.88
2023-02-22T07:48:09.002Z,45.84
2023-02-22T07:50:37.412Z,45.16
2023-02-22T07:53:05.808Z,45.09
2023-02-22T07:55:34.196Z,44.85
2023-02-22T07:58:02.638Z,45.04
2023-02-22T08:00:31.032Z,44.86
2023-02-22T08:02:59.449Z,45.24
2023-02-22T08:05:27.853Z,44.83
2023-02-22T08:07:56.140Z,44.63
2023-02-22T08:10:24.431Z,44.51
2023-02-22T08:12:51.922Z,44.18
2023-02-22T08:15:20.197Z,44.41
2023-02-22T08:17:46.734Z,44.16
2023-02-22T08:20:14.261Z,44.07
2023-02-22T08:22:40.819Z,44.43
2023-02-22T08:25:08.470Z,44.13
2023-02-22T08:27:35.059Z,44.10
2023-02-22T08:30:03.283Z,44.55
2023-02-22T08:32:29.997Z,44.32
2023-02-22T08:34:57.486Z,44.22
2023-02-22T08:37:23.987Z,45.33
2023-02-22T08:39:50.483Z,44.65
2023-02-22T08:42:16.979Z,45.26
2023-02-22T08:44:44.454Z,45.46
2023-02-22T08:47:10.960Z,45.01
2023-02-22T08:49:37.540Z,45.00
2023-02-22T08:52:04.023Z,45.45
2023-02-22T08:54:30.512Z,45.04
2023-02-22T08:56:57.010Z,45.39
2023-02-22T08:59:23.504Z,45.25
2023-02-22T09:01:51.143Z,44.84
2023-02-22T09:04:17.643Z,44.85
2023-02-22T09:09:38.977Z,44.77
2023-02-22T09:12:05.529Z,44.95
2023-02-22T09:14:32.970Z,43.98
2023-02-22T09:17:00.366Z,43.98
2023-02-22T09:19:26.863Z,44.26
2023-02-22T09:24:37.292Z,43.36
2023-02-22T09:27:03.773Z,43.56
2023-02-22T09:29:30.526Z,43.93
2023-02-22T09:31:57.067Z,43.22
2023-02-22T09:34:24.521Z,43.32
2023-02-22T09:39:44.974Z,43.43
2023-02-22T09:42:11.525Z,42.90
2023-02-22T09:44:38.863Z,43.67
2023-02-22T09:47:05.312Z,43.14
2023-02-22T09:49:33.619Z,42.60
2023-02-22T09:54:44.928Z,43.42
2023-02-22T09:57:12.175Z,42.33
2023-02-22T09:59:38.722Z,42.82
2023-02-22T10:02:05.236Z,42.48
2023-02-22T10:04:31.710Z,42.16
2023-02-22T10:09:56.355Z,41.57
2023-02-22T10:12:22.748Z,41.60
2023-02-22T10:14:51.924Z,41.34
2023-02-22T10:17:21.089Z,41.25
2023-02-22T10:19:48.346Z,41.02
2023-02-22T10:25:10.526Z,40.98
2023-02-22T10:27:36.952Z,41.02
2023-02-22T10:30:10.074Z,40.91
2023-02-22T10:32:45.290Z,40.83
2023-02-22T10:35:12.538Z,40.76
2023-02-22T10:40:23.521Z,40.58
2023-02-22T10:42:49.868Z,40.41
2023-02-22T10:45:17.097Z,40.65
2023-02-22T10:47:44.294Z,40.38
2023-02-22T10:50:10.670Z,40.40
2023-02-22T10:55:23.663Z,40.26
2023-02-22T10:57:50.005Z,40.12
2023-02-22T11:00:16.362Z,39.95
2023-02-22T11:02:42.679Z,39.90
2023-02-22T11:05:09.058Z,39.84
2023-02-22T11:10:29.321Z,39.52
2023-02-22T11:12:55.707Z,39.42
2023-02-22T11:15:22.095Z,39.46
2023-02-22T11:17:48.508Z,39.66
2023-02-22T11:20:15.772Z,39.38
2023-02-22T11:25:36.207Z,39.31
2023-02-22T11:28:02.536Z,38.95
2023-02-22T11:30:28.961Z,39.02
2023-02-22T11:32:56.369Z,39.07
2023-02-22T11:35:22.707Z,38.97
2023-02-22T11:40:34.718Z,39.07
2023-02-22T11:43:01.135Z,38.83
2023-02-22T11:45:27.513Z,39.24
2023-02-22T11:47:53.892Z,38.79
2023-02-22T11:50:20.252Z,39.04
2023-02-22T11:55:42.232Z,38.64
2023-02-22T11:58:13.785Z,38.44
2023-02-22T12:00:40.215Z,38.52
2023-02-22T12:03:06.632Z,38.48
2023-02-22T12:05:33.020Z,38.18
2023-02-22T12:10:43.245Z,38.32
2023-02-22T12:13:09.641Z,38.14
2023-02-22T12:15:36.007Z,38.19
2023-02-22T12:18:02.425Z,38.21
2023-02-22T12:20:28.790Z,38.05
2023-02-22T12:25:39.277Z,37.99
2023-02-22T12:28:10.103Z,37.96
2023-02-22T12:30:42.156Z,37.83
2023-02-22T12:33:08.667Z,37.76
2023-02-22T12:35:35.038Z,37.76
2023-02-22T12:40:45.300Z,38.10
2023-02-22T12:43:12.549Z,37.98
2023-02-22T12:45:38.900Z,38.32
2023-02-22T12:48:05.243Z,38.12
2023-02-22T12:50:31.585Z,38.58
2023-02-22T12:52:57.948Z,38.69
2023-02-22T12:55:25.229Z,38.70
2023-02-22T12:57:51.556Z,38.81
2023-02-22T13:00:18.003Z,39.12
2023-02-22T13:02:44.328Z,38.63
2023-02-22T13:05:10.708Z,39.11
2023-02-22T13:07:37.073Z,39.10
2023-02-22T13:10:03.397Z,39.60
2023-02-22T13:12:29.772Z,39.34
2023-02-22T13:14:56.123Z,39.01
2023-02-22T13:17:22.535Z,38.93
2023-02-22T13:19:48.850Z,39.11
2023-02-22T13:22:16.154Z,38.84
2023-02-22T13:24:42.500Z,38.54
2023-02-22T13:27:08.881Z,38.25
2023-02-22T13:29:35.235Z,38.41
2023-02-22T13:32:01.640Z,38.44
2023-02-22T13:34:29.570Z,38.17
2023-02-22T13:36:57.034Z,38.59
2023-02-22T13:39:25.507Z,38.06
2023-02-22T13:41:54.817Z,38.51
2023-02-22T13:44:21.148Z,38.53
2023-02-22T13:46:47.540Z,37.94
2023-02-22T13:49:14.753Z,38.25
2023-02-22T13:51:41.083Z,38.01
2023-02-22T13:54:10.367Z,38.58
2023-02-22T13:56:36.702Z,38.46
2023-02-22T13:59:03.024Z,38.16
2023-02-22T14:01:29.370Z,38.32
2023-02-22T14:03:55.687Z,38.11
2023-02-22T14:06:22.073Z,38.27
2023-02-22T14:08:48.422Z,38.15
2023-02-22T14:13:58.918Z,37.98
2023-02-22T14:16:25.396Z,38.35
2023-02-22T14:18:52.938Z,38.51
2023-02-22T14:21:19.280Z,38.83
2023-02-22T14:23:45.628Z,38.29
2023-02-22T14:28:55.867Z,38.75
2023-02-22T14:31:35.052Z,39.08
2023-02-22T14:34:02.748Z,39.18
2023-02-22T14:36:29.086Z,39.09
2023-02-22T14:38:55.453Z,39.34
2023-02-22T14:44:15.411Z,39.08
2023-02-22T14:46:41.767Z,39.10
2023-02-22T14:49:08.100Z,39.02
2023-02-22T14:51:34.458Z,39.13
2023-02-22T14:54:00.802Z,39.03
2023-02-22T14:59:21.088Z,39.01
2023-02-22T15:01:58.469Z,38.93
2023-02-22T15:04:32.321Z,39.11
2023-02-22T15:06:58.771Z,39.08
2023-02-22T15:09:28.460Z,39.01
2023-02-22T15:14:39.500Z,39.04
2023-02-22T15:17:06.091Z,39.17
2023-02-22T15:19:32.427Z,38.96
2023-02-22T15:21:58.745Z,39.11
2023-02-22T15:24:25.110Z,39.04
2023-02-22T15:29:35.255Z,38.94
2023-02-22T15:32:01.659Z,38.92
2023-02-22T15:34:28.038Z,39.10
2023-02-22T15:36:54.344Z,38.90
2023-02-22T15:39:20.718Z,39.10
2023-02-22T15:44:31.038Z,39.17
2023-02-22T15:46:57.380Z,39.19
2023-02-22T15:49:23.747Z,38.88
2023-02-22T15:51:50.099Z,39.13
2023-02-22T15:54:26.465Z,39.21
2023-02-22T15:59:37.746Z,39.74
2023-02-22T16:02:04.114Z,39.37
2023-02-22T16:04:32.112Z,39.58
2023-02-22T16:06:58.461Z,39.59
2023-02-22T16:09:24.846Z,40.17
2023-02-22T16:14:35.296Z,40.36
2023-02-22T16:17:01.632Z,40.32
2023-02-22T16:19:27.977Z,40.33
2023-02-22T16:21:54.329Z,40.44
2023-02-22T16:24:20.666Z,40.62
2023-02-22T16:29:40.774Z,41.59
2023-02-22T16:32:07.209Z,41.65
2023-02-22T16:34:33.763Z,42.05
2023-02-22T16:37:00.221Z,42.75
2023-02-22T16:39:26.546Z,42.55
2023-02-22T16:44:39.406Z,43.49
2023-02-22T16:47:05.788Z,43.07
2023-02-22T16:49:32.139Z,43.21
2023-02-22T16:51:58.442Z,43.22
2023-02-22T16:54:24.786Z,42.99
2023-02-22T16:59:35.361Z,43.94
2023-02-22T17:02:01.652Z,43.57
2023-02-22T17:04:27.968Z,43.95
2023-02-22T17:06:55.208Z,44.15
2023-02-22T17:09:21.623Z,43.98
2023-02-22T17:14:44.949Z,44.48
2023-02-22T17:17:13.221Z,44.13
2023-02-22T17:19:40.498Z,43.79
2023-02-22T17:22:06.997Z,44.19
2023-02-22T17:24:36.930Z,44.31
2023-02-22T17:29:59.275Z,44.95
2023-02-22T17:32:25.983Z,44.67
2023-02-22T17:34:54.314Z,44.96
2023-02-22T17:37:20.768Z,44.48
2023-02-22T17:39:49.097Z,44.90
2023-02-22T17:45:01.212Z,44.87
2023-02-22T17:47:28.465Z,44.66
2023-02-22T17:49:55.095Z,44.56
2023-02-22T17:52:24.276Z,44.23
2023-02-22T17:54:50.699Z,44.38
2023-02-22T18:00:13.130Z,44.03
2023-02-22T18:02:39.747Z,43.75
2023-02-22T18:05:07.045Z,43.91
2023-02-22T18:07:34.298Z,43.82
2023-02-22T18:10:02.005Z,43.68
2023-02-22T18:15:14.366Z,43.68
2023-02-22T18:17:40.878Z,43.91
2023-02-22T18:20:09.190Z,43.32
2023-02-22T18:22:36.449Z,43.55
2023-02-22T18:25:03.689Z,43.67
2023-02-22T18:27:30.104Z,43.56
2023-02-22T18:29:58.446Z,43.70
2023-02-22T18:32:24.998Z,43.70
2023-02-22T18:34:53.322Z,43.51
2023-02-22T18:37:20.646Z,43.22
2023-02-22T18:39:47.166Z,43.29
2023-02-22T18:42:13.652Z,43.41
2023-02-22T18:44:40.133Z,43.22
2023-02-22T18:47:06.560Z,43.56
2023-02-22T18:49:35.384Z,43.82
2023-02-22T18:52:01.866Z,43.85
2023-02-22T18:54:28.325Z,44.24
2023-02-22T18:56:54.754Z,44.08
2023-02-22T18:59:21.991Z,44.41
2023-02-22T19:01:48.393Z,44.58
2023-02-22T19:04:14.944Z,44.50
2023-02-22T19:06:41.320Z,44.25
2023-02-22T19:09:07.678Z,44.66
2023-02-22T19:11:34.042Z,44.43
2023-02-22T19:14:00.393Z,45.02
2023-02-22T19:16:28.790Z,44.85
2023-02-22T19:18:55.258Z,44.71
2023-02-22T19:21:22.105Z,45.08
2023-02-22T19:23:49.091Z,44.96
2023-02-22T19:26:15.756Z,45.30
2023-02-22T19:28:42.253Z,44.87
2023-02-22T19:31:08.723Z,44.83
2023-02-22T19:33:35.134Z,45.06
2023-02-22T19:36:02.346Z,44.77
2023-02-22T19:38:28.708Z,45.01
2023-02-22T19:40:55.112Z,44.80
2023-02-22T19:43:22.355Z,44.51
2023-02-22T19:48:35.773Z,44.40
2023-02-22T19:51:02.302Z,44.29
2023-02-22T19:53:28.724Z,44.25
2023-02-22T19:55:55.139Z,44.26
2023-02-22T19:58:25.089Z,44.11
2023-02-22T20:03:48.223Z,44.09
2023-02-22T20:06:14.954Z,43.76
2023-02-22T20:08:41.368Z,43.74
2023-02-22T20:11:08.679Z,43.83
2023-02-22T20:13:35.914Z,43.74
2023-02-22T20:18:46.477Z,43.94
2023-02-22T20:21:12.953Z,44.07
2023-02-22T20:23:39.434Z,44.16
2023-02-22T20:26:06.839Z,44.25
2023-02-22T20:28:33.290Z,44.15
2023-02-22T20:33:45.739Z,44.43
2023-02-22T20:36:12.254Z,44.42
2023-02-22T20:38:38.788Z,44.33
2023-02-22T20:41:06.044Z,44.06
2023-02-22T20:43:33.442Z,43.85
2023-02-22T20:48:44.899Z,43.96
2023-02-22T20:51:11.287Z,43.65
2023-02-22T20:53:38.672Z,43.49
2023-02-22T20:56:05.186Z,43.75
2023-02-22T20:58:31.666Z,43.62
2023-02-22T21:01:04.442Z,43.92
2023-02-22T21:03:30.931Z,43.29
2023-02-22T21:05:58.318Z,43.02
2023-02-22T21:08:24.777Z,43.40
2023-02-22T21:10:52.323Z,43.26
2023-02-22T21:13:18.787Z,42.08
2023-02-22T21:18:33.055Z,41.43
2023-02-22T21:21:01.484Z,41.34
2023-02-22T21:23:29.908Z,41.77
2023-02-22T21:25:58.307Z,41.92
2023-02-22T21:28:37.387Z,42.50
2023-02-22T21:34:00.822Z,42.10
2023-02-22T21:36:29.076Z,42.84
2023-02-22T21:38:56.523Z,42.07
2023-02-22T21:41:23.037Z,42.29
2023-02-22T21:43:51.038Z,42.01
2023-02-22T21:49:11.615Z,42.21
2023-02-22T21:51:38.270Z,42.25
2023-02-22T21:54:04.753Z,42.07
2023-02-22T21:56:31.242Z,42.20
2023-02-22T21:58:57.698Z,42.22
2023-02-22T22:04:08.255Z,42.84
2023-02-22T22:06:34.771Z,42.25
2023-02-22T22:09:02.191Z,43.18
2023-02-22T22:11:28.642Z,42.01
2023-02-22T22:13:55.099Z,42.71
2023-02-22T22:19:16.268Z,42.02
2023-02-22T22:21:42.732Z,41.83
2023-02-22T22:24:09.199Z,41.80
2023-02-22T22:26:36.702Z,41.96
2023-02-22T22:29:06.197Z,41.90
2023-02-22T22:34:18.344Z,41.91
2023-02-22T22:36:45.782Z,42.37
2023-02-22T22:39:12.273Z,42.59
2023-02-22T22:41:39.649Z,41.90
2023-02-22T22:44:06.145Z,42.11
2023-02-22T22:49:16.582Z,42.19
2023-02-22T22:51:43.961Z,42.31
2023-02-22T22:54:11.255Z,42.04
2023-02-22T22:56:38.702Z,42.40
2023-02-22T22:59:06.073Z,42.30
2023-02-22T23:04:16.656Z,42.32
2023-02-22T23:06:44.006Z,41.76
2023-02-22T23:09:11.274Z,42.10
2023-02-22T23:11:37.847Z,42.60
2023-02-22T23:14:04.293Z,42.37
2023-02-22T23:19:14.485Z,42.76
2023-02-22T23:21:42.769Z,42.34
2023-02-22T23:24:09.185Z,42.23
2023-02-22T23:26:38.355Z,42.75
2023-02-22T23:29:04.751Z,42.09
2023-02-22T23:31:31.202Z,42.59
2023-02-22T23:33:57.631Z,42.36
2023-02-22T23:36:25.952Z,42.67
2023-02-22T23:38:52.380Z,42.34
2023-02-22T23:41:19.041Z,42.39
2023-02-22T23:43:45.620Z,42.66
2023-02-22T23:46:12.027Z,42.78
2023-02-22T23:48:38.375Z,42.18
2023-02-22T23:51:04.741Z,42.17
2023-02-22T23:53:31.108Z,42.10
2023-02-22T23:55:57.475Z,42.44
2023-02-22T23:58:23.833Z,42.28
